C2702 TXKF-TJBQ
Flight info
| Callsign | C2702 |
|---|---|
| Flight time | N/A |
| Altitude | 5000 |
| Route | TXKF BORNN1 ANTIG M328 EMAKO L456 PRCHA M596 MACOR L455 VACHI DCT TJBQ |
| Aircraft | CN35/M-G/C |
Departure
| Time | 2026-05-09 14:56 |
|---|---|
| Airport | L.F. Wade International Airport (TXKF) |
Arrival
| Time | N/A |
|---|---|
| Airport | Rafael Hernández International Airport (TJBQ) |
| Time | Latitude | Longitude | Altitude | Speed | Heading |
|---|---|---|---|---|---|
| 2026-05-09 14:39 | 32.36827 | -64.68687 | 3 ft | 0 kts | 193° |
| 2026-05-09 14:48 | 32.36813 | -64.68690 | 3 ft | 4 kts | 193° |
| 2026-05-09 14:48 | 32.36805 | -64.68701 | 3 ft | 2 kts | 249° |
| 2026-05-09 14:48 | 32.36798 | -64.68727 | 3 ft | 4 kts | 237° |
| 2026-05-09 14:49 | 32.36769 | -64.68754 | 3 ft | 6 kts | 225° |
| 2026-05-09 14:49 | 32.36747 | -64.68808 | 3 ft | 9 kts | 247° |
| 2026-05-09 14:49 | 32.36715 | -64.68894 | 3 ft | 13 kts | 246° |
| 2026-05-09 14:49 | 32.36673 | -64.69008 | 3 ft | 17 kts | 248° |
| 2026-05-09 14:50 | 32.36624 | -64.69156 | 2 ft | 21 kts | 249° |
| 2026-05-09 14:50 | 32.36566 | -64.69332 | 2 ft | 25 kts | 249° |
| 2026-05-09 14:50 | 32.36553 | -64.69378 | 2 ft | 2 kts | 263° |
| 2026-05-09 14:50 | 32.36554 | -64.69402 | 2 ft | 1 kts | 302° |
| 2026-05-09 14:51 | 32.36561 | -64.69405 | 2 ft | 0 kts | 342° |
| 2026-05-09 14:53 | 32.36562 | -64.69405 | -1 ft | 1 kts | 342° |
| 2026-05-09 14:53 | 32.36584 | -64.69409 | 2 ft | 5 kts | 4° |
| 2026-05-09 14:53 | 32.36631 | -64.69396 | 2 ft | 9 kts | 14° |
| 2026-05-09 14:54 | 32.36659 | -64.69379 | 2 ft | 1 kts | 73° |
| 2026-05-09 14:54 | 32.36658 | -64.69370 | 2 ft | 1 kts | 102° |
| 2026-05-09 14:54 | 32.36645 | -64.69264 | 2 ft | 34 kts | 99° |
| 2026-05-09 14:54 | 32.36570 | -64.68810 | 4 ft | 77 kts | 101° |
| 2026-05-09 14:55 | 32.36440 | -64.68057 | 4 ft | 107 kts | 102° |
| 2026-05-09 14:55 | 32.36292 | -64.67113 | 20 ft | 125 kts | 99° |
| 2026-05-09 14:55 | 32.36090 | -64.66087 | 116 ft | 131 kts | 99° |
| 2026-05-09 14:55 | 32.35898 | -64.65033 | 394 ft | 132 kts | 98° |
| 2026-05-09 14:56 | 32.35710 | -64.63939 | 623 ft | 138 kts | 98° |
| 2026-05-09 14:56 | 32.35541 | -64.62784 | 857 ft | 151 kts | 96° |
| 2026-05-09 14:56 | 32.35359 | -64.61499 | 1176 ft | 163 kts | 98° |
| 2026-05-09 14:56 | 32.35111 | -64.60166 | 1687 ft | 164 kts | 100° |
| 2026-05-09 14:57 | 32.34639 | -64.58954 | 2266 ft | 168 kts | 127° |
| 2026-05-09 14:57 | 32.33572 | -64.58250 | 2612 ft | 188 kts | 163° |
| 2026-05-09 14:57 | 32.32236 | -64.58423 | 2979 ft | 203 kts | 198° |
| 2026-05-09 14:57 | 32.30895 | -64.59096 | 3210 ft | 215 kts | 201° |
| 2026-05-09 14:58 | 32.29485 | -64.59772 | 3462 ft | 222 kts | 201° |
| 2026-05-09 14:58 | 32.28029 | -64.60460 | 3714 ft | 227 kts | 202° |
| 2026-05-09 14:58 | 32.27045 | -64.60913 | 3829 ft | 232 kts | 202° |
| 2026-05-09 14:58 | 32.25515 | -64.61597 | 3978 ft | 237 kts | 202° |
| 2026-05-09 14:59 | 32.23992 | -64.62383 | 4104 ft | 241 kts | 210° |
| 2026-05-09 14:59 | 32.22700 | -64.63636 | 4212 ft | 243 kts | 230° |
| 2026-05-09 14:59 | 32.21646 | -64.65199 | 4345 ft | 244 kts | 233° |
| 2026-05-09 14:59 | 32.20637 | -64.66819 | 4461 ft | 245 kts | 237° |
| 2026-05-09 15:00 | 32.19714 | -64.68530 | 4499 ft | 248 kts | 240° |
| 2026-05-09 15:00 | 32.18822 | -64.70286 | 4572 ft | 250 kts | 240° |
| 2026-05-09 15:00 | 32.17936 | -64.72054 | 4655 ft | 251 kts | 241° |
| 2026-05-09 15:00 | 32.17103 | -64.73864 | 4742 ft | 251 kts | 244° |
| 2026-05-09 15:01 | 32.15547 | -64.77545 | 4892 ft | 250 kts | 245° |
| 2026-05-09 15:01 | 32.14781 | -64.79393 | 4949 ft | 251 kts | 245° |
| 2026-05-09 15:01 | 32.14012 | -64.81254 | 4984 ft | 253 kts | 245° |
| 2026-05-09 15:02 | 32.13245 | -64.83129 | 4999 ft | 254 kts | 245° |
| 2026-05-09 15:02 | 32.12476 | -64.85016 | 5002 ft | 255 kts | 246° |
| 2026-05-09 15:02 | 32.11703 | -64.86901 | 4999 ft | 256 kts | 245° |
| 2026-05-09 15:02 | 32.10923 | -64.88793 | 5006 ft | 256 kts | 245° |
| 2026-05-09 15:03 | 32.10143 | -64.90687 | 5007 ft | 257 kts | 246° |
| 2026-05-09 15:03 | 32.09360 | -64.92580 | 5004 ft | 257 kts | 245° |
| 2026-05-09 15:03 | 32.08551 | -64.94459 | 5005 ft | 257 kts | 245° |
| 2026-05-09 15:03 | 32.07732 | -64.96335 | 5006 ft | 257 kts | 244° |
| 2026-05-09 15:04 | 32.06914 | -64.98209 | 5008 ft | 257 kts | 244° |
| 2026-05-09 15:04 | 32.06099 | -65.00081 | 5017 ft | 257 kts | 245° |
| 2026-05-09 15:06 | 32.00036 | -65.13009 | 5019 ft | 258 kts | 242° |
| 2026-05-09 15:06 | 31.99169 | -65.14861 | 5015 ft | 258 kts | 243° |
| 2026-05-09 15:06 | 31.98317 | -65.16730 | 5014 ft | 258 kts | 244° |
| 2026-05-09 15:06 | 31.97477 | -65.18597 | 5011 ft | 258 kts | 244° |
| 2026-05-09 15:07 | 31.96635 | -65.20459 | 5011 ft | 257 kts | 244° |
| 2026-05-09 15:07 | 31.95793 | -65.22314 | 5009 ft | 257 kts | 243° |
| 2026-05-09 15:07 | 31.94954 | -65.24171 | 5011 ft | 257 kts | 243° |
| 2026-05-09 15:07 | 31.94116 | -65.26028 | 5005 ft | 257 kts | 244° |
| 2026-05-09 15:08 | 31.93270 | -65.27884 | 5011 ft | 257 kts | 243° |
| 2026-05-09 15:08 | 31.91566 | -65.31579 | 5014 ft | 257 kts | 244° |
| 2026-05-09 15:08 | 31.90706 | -65.33430 | 5009 ft | 258 kts | 244° |
| 2026-05-09 15:09 | 31.89846 | -65.35286 | 5011 ft | 259 kts | 244° |
| 2026-05-09 15:10 | 31.83838 | -65.48290 | 5005 ft | 258 kts | 243° |
| 2026-05-09 15:11 | 31.82984 | -65.50142 | 5005 ft | 258 kts | 243° |
| 2026-05-09 15:11 | 31.82134 | -65.52003 | 5009 ft | 258 kts | 244° |
| 2026-05-09 15:11 | 31.81281 | -65.53860 | 5008 ft | 258 kts | 244° |
| 2026-05-09 15:11 | 31.80425 | -65.55716 | 5010 ft | 258 kts | 244° |
| 2026-05-09 15:12 | 31.79566 | -65.57569 | 5009 ft | 258 kts | 244° |
| 2026-05-09 15:12 | 31.78711 | -65.59419 | 5004 ft | 257 kts | 244° |
| 2026-05-09 15:12 | 31.77862 | -65.61273 | 5009 ft | 257 kts | 244° |
| 2026-05-09 15:12 | 31.77014 | -65.63125 | 5004 ft | 257 kts | 244° |
| 2026-05-09 15:13 | 31.76168 | -65.64973 | 5007 ft | 257 kts | 244° |
| 2026-05-09 15:13 | 31.75319 | -65.66820 | 5009 ft | 257 kts | 244° |
| 2026-05-09 15:13 | 31.74467 | -65.68671 | 5011 ft | 258 kts | 244° |
| 2026-05-09 15:13 | 31.73614 | -65.70524 | 5006 ft | 258 kts | 244° |
| 2026-05-09 15:14 | 31.72761 | -65.72375 | 5009 ft | 257 kts | 244° |
| 2026-05-09 15:14 | 31.71910 | -65.74226 | 5005 ft | 257 kts | 244° |
| 2026-05-09 15:14 | 31.71061 | -65.76077 | 5003 ft | 258 kts | 244° |
| 2026-05-09 15:14 | 31.70213 | -65.77938 | 5003 ft | 258 kts | 244° |
| 2026-05-09 15:15 | 31.69364 | -65.79798 | 4998 ft | 258 kts | 244° |
| 2026-05-09 15:15 | 31.68525 | -65.81629 | 4998 ft | 258 kts | 244° |
| 2026-05-09 15:15 | 31.67666 | -65.83507 | 4998 ft | 258 kts | 244° |
| 2026-05-09 15:15 | 31.66829 | -65.85339 | 5000 ft | 258 kts | 244° |
| 2026-05-09 15:16 | 31.65983 | -65.87191 | 5007 ft | 257 kts | 243° |
| 2026-05-09 15:16 | 31.65140 | -65.89046 | 5007 ft | 257 kts | 244° |
| 2026-05-09 15:16 | 31.64294 | -65.90893 | 5005 ft | 257 kts | 244° |
| 2026-05-09 15:16 | 31.63443 | -65.92739 | 5007 ft | 257 kts | 244° |
| 2026-05-09 15:17 | 31.62593 | -65.94590 | 5003 ft | 258 kts | 244° |
| 2026-05-09 15:17 | 31.61749 | -65.96443 | 4999 ft | 257 kts | 244° |
| 2026-05-09 15:17 | 31.60905 | -65.98291 | 5003 ft | 257 kts | 243° |
| 2026-05-09 15:17 | 31.60066 | -66.00138 | 4998 ft | 257 kts | 244° |
| 2026-05-09 15:18 | 31.59227 | -66.01989 | 4994 ft | 257 kts | 243° |
| 2026-05-09 15:18 | 31.58446 | -66.03876 | 5000 ft | 256 kts | 249° |
| 2026-05-09 15:18 | 31.57869 | -66.05851 | 4998 ft | 256 kts | 255° |
| 2026-05-09 15:18 | 31.57402 | -66.07868 | 4996 ft | 256 kts | 256° |
| 2026-05-09 15:19 | 31.56934 | -66.09884 | 4998 ft | 256 kts | 256° |
| 2026-05-09 15:19 | 31.56467 | -66.11902 | 4989 ft | 256 kts | 256° |
| 2026-05-09 15:19 | 31.56007 | -66.13919 | 4995 ft | 256 kts | 256° |
| 2026-05-09 15:19 | 31.55549 | -66.15938 | 4995 ft | 256 kts | 256° |
| 2026-05-09 15:20 | 31.55090 | -66.17955 | 4995 ft | 256 kts | 256° |
| 2026-05-09 15:20 | 31.54441 | -66.22019 | 4994 ft | 255 kts | 264° |
| 2026-05-09 15:20 | 31.54299 | -66.24092 | 4993 ft | 255 kts | 266° |
| 2026-05-09 15:21 | 31.54169 | -66.26162 | 4996 ft | 255 kts | 266° |
| 2026-05-09 15:21 | 31.54036 | -66.28236 | 4997 ft | 255 kts | 266° |
| 2026-05-09 15:21 | 31.53910 | -66.30306 | 4996 ft | 255 kts | 266° |
| 2026-05-09 15:21 | 31.53780 | -66.32379 | 4998 ft | 255 kts | 266° |
| 2026-05-09 15:22 | 31.53646 | -66.34456 | 4996 ft | 255 kts | 266° |
| 2026-05-09 15:22 | 31.53512 | -66.36529 | 4998 ft | 255 kts | 266° |
| 2026-05-09 15:22 | 31.53382 | -66.38605 | 4999 ft | 255 kts | 266° |
| 2026-05-09 15:22 | 31.53250 | -66.40683 | 4999 ft | 256 kts | 266° |
| 2026-05-09 15:23 | 31.53115 | -66.42768 | 4999 ft | 256 kts | 266° |
| 2026-05-09 15:23 | 31.52983 | -66.44848 | 4996 ft | 256 kts | 266° |
| 2026-05-09 15:23 | 31.52850 | -66.46937 | 4998 ft | 257 kts | 266° |
| 2026-05-09 15:23 | 31.52720 | -66.49022 | 4998 ft | 256 kts | 266° |
| 2026-05-09 15:24 | 31.52593 | -66.51110 | 5000 ft | 257 kts | 266° |
| 2026-05-09 15:24 | 31.52462 | -66.53200 | 4998 ft | 257 kts | 266° |
| 2026-05-09 15:24 | 31.52331 | -66.55294 | 4998 ft | 257 kts | 266° |
| 2026-05-09 15:24 | 31.52204 | -66.57355 | 4995 ft | 257 kts | 266° |
| 2026-05-09 15:25 | 31.52073 | -66.59443 | 4999 ft | 257 kts | 266° |
| 2026-05-09 15:25 | 31.51971 | -66.61537 | 4998 ft | 257 kts | 268° |
| 2026-05-09 15:25 | 31.51898 | -66.63633 | 4998 ft | 257 kts | 268° |
| 2026-05-09 15:26 | 31.51810 | -66.67817 | 4999 ft | 257 kts | 269° |
| 2026-05-09 15:26 | 31.51781 | -66.69935 | 4997 ft | 257 kts | 269° |
| 2026-05-09 15:26 | 31.51776 | -66.72006 | 4997 ft | 257 kts | 270° |
| 2026-05-09 15:26 | 31.51775 | -66.74101 | 4998 ft | 257 kts | 270° |
| 2026-05-09 15:27 | 31.51772 | -66.76204 | 4998 ft | 258 kts | 270° |
| 2026-05-09 15:27 | 31.51766 | -66.78301 | 4997 ft | 258 kts | 270° |
| 2026-05-09 15:27 | 31.51754 | -66.80406 | 4999 ft | 258 kts | 269° |
| 2026-05-09 15:27 | 31.51720 | -66.82508 | 4999 ft | 258 kts | 269° |
| 2026-05-09 15:28 | 31.51684 | -66.84613 | 4999 ft | 258 kts | 269° |
| 2026-05-09 15:28 | 31.51634 | -66.86718 | 4999 ft | 259 kts | 268° |
| 2026-05-09 15:28 | 31.51560 | -66.88824 | 4998 ft | 258 kts | 268° |
| 2026-05-09 15:28 | 31.51486 | -66.90930 | 5004 ft | 259 kts | 268° |
| 2026-05-09 15:29 | 31.51414 | -66.93042 | 4997 ft | 259 kts | 268° |
| 2026-05-09 15:29 | 31.51340 | -66.95158 | 4998 ft | 260 kts | 268° |
| 2026-05-09 15:29 | 31.51266 | -66.97270 | 4999 ft | 260 kts | 268° |
| 2026-05-09 15:29 | 31.51188 | -66.99389 | 5000 ft | 260 kts | 268° |
| 2026-05-09 15:30 | 31.51123 | -67.01513 | 4996 ft | 261 kts | 269° |
| 2026-05-09 15:30 | 31.51076 | -67.03639 | 4997 ft | 261 kts | 269° |
| 2026-05-09 15:30 | 31.51028 | -67.05764 | 4996 ft | 261 kts | 269° |
| 2026-05-09 15:30 | 31.50980 | -67.07895 | 4999 ft | 261 kts | 269° |
| 2026-05-09 15:31 | 31.50940 | -67.09996 | 4998 ft | 262 kts | 269° |
| 2026-05-09 15:31 | 31.50897 | -67.12123 | 4997 ft | 261 kts | 269° |
| 2026-05-09 15:31 | 31.50854 | -67.14251 | 4997 ft | 261 kts | 269° |
| 2026-05-09 15:31 | 31.50811 | -67.16379 | 4993 ft | 261 kts | 269° |
| 2026-05-09 15:32 | 31.50768 | -67.18505 | 4997 ft | 261 kts | 269° |
| 2026-05-09 15:32 | 31.50726 | -67.20631 | 4997 ft | 261 kts | 269° |
| 2026-05-09 15:32 | 31.50687 | -67.22755 | 4996 ft | 261 kts | 269° |
| 2026-05-09 15:32 | 31.50649 | -67.24887 | 4997 ft | 262 kts | 269° |
| 2026-05-09 15:33 | 31.50612 | -67.27015 | 5003 ft | 261 kts | 269° |
| 2026-05-09 15:33 | 31.50575 | -67.29142 | 5001 ft | 261 kts | 269° |
| 2026-05-09 15:33 | 31.50537 | -67.31263 | 5001 ft | 261 kts | 269° |
| 2026-05-09 15:33 | 31.50499 | -67.33388 | 5003 ft | 260 kts | 269° |
| 2026-05-09 15:34 | 31.50462 | -67.35507 | 4998 ft | 260 kts | 269° |
| 2026-05-09 15:34 | 31.50423 | -67.37629 | 4999 ft | 260 kts | 269° |
| 2026-05-09 15:34 | 31.50385 | -67.39749 | 4998 ft | 260 kts | 269° |
| 2026-05-09 15:34 | 31.50349 | -67.41872 | 4999 ft | 261 kts | 269° |
| 2026-05-09 15:35 | 31.50317 | -67.43996 | 5002 ft | 261 kts | 269° |
| 2026-05-09 15:35 | 31.50286 | -67.46127 | 5002 ft | 261 kts | 269° |
| 2026-05-09 15:35 | 31.50255 | -67.48261 | 5004 ft | 262 kts | 269° |
| 2026-05-09 15:35 | 31.50225 | -67.50397 | 5005 ft | 263 kts | 269° |
| 2026-05-09 15:36 | 31.50195 | -67.52514 | 5001 ft | 263 kts | 269° |
| 2026-05-09 15:36 | 31.50163 | -67.54655 | 4999 ft | 263 kts | 269° |
| 2026-05-09 15:36 | 31.50136 | -67.56824 | 5000 ft | 262 kts | 269° |
| 2026-05-09 15:36 | 31.50118 | -67.58935 | 5000 ft | 263 kts | 269° |
| 2026-05-09 15:37 | 31.50100 | -67.61074 | 5004 ft | 262 kts | 269° |
| 2026-05-09 15:37 | 31.50076 | -67.63207 | 5003 ft | 262 kts | 269° |
| 2026-05-09 15:37 | 31.50052 | -67.65338 | 5003 ft | 261 kts | 269° |
| 2026-05-09 15:37 | 31.50029 | -67.67471 | 5002 ft | 261 kts | 269° |
| 2026-05-09 15:38 | 31.50004 | -67.69599 | 4995 ft | 261 kts | 269° |
| 2026-05-09 15:38 | 31.49983 | -67.71728 | 4996 ft | 261 kts | 269° |
| 2026-05-09 15:38 | 31.49960 | -67.73852 | 4994 ft | 261 kts | 269° |
| 2026-05-09 15:38 | 31.49938 | -67.75977 | 4995 ft | 261 kts | 269° |
| 2026-05-09 15:39 | 31.49921 | -67.78101 | 4995 ft | 261 kts | 269° |
| 2026-05-09 15:39 | 31.49901 | -67.80223 | 4995 ft | 260 kts | 269° |
| 2026-05-09 15:39 | 31.49881 | -67.82346 | 4994 ft | 260 kts | 269° |
| 2026-05-09 15:39 | 31.49863 | -67.84472 | 4994 ft | 260 kts | 269° |
| 2026-05-09 15:40 | 31.49845 | -67.86593 | 4995 ft | 261 kts | 269° |
| 2026-05-09 15:40 | 31.49827 | -67.88721 | 4994 ft | 260 kts | 269° |
| 2026-05-09 15:40 | 31.49816 | -67.90814 | 4993 ft | 260 kts | 269° |
| 2026-05-09 15:40 | 31.49808 | -67.92935 | 4994 ft | 260 kts | 269° |
| 2026-05-09 15:41 | 31.49793 | -67.95054 | 4993 ft | 260 kts | 269° |
| 2026-05-09 15:41 | 31.49782 | -67.97173 | 4992 ft | 260 kts | 269° |
| 2026-05-09 15:41 | 31.49775 | -67.99292 | 4994 ft | 260 kts | 269° |
| 2026-05-09 15:41 | 31.49766 | -68.01418 | 4994 ft | 261 kts | 269° |
| 2026-05-09 15:42 | 31.49756 | -68.03549 | 4995 ft | 261 kts | 269° |
| 2026-05-09 15:42 | 31.49746 | -68.04959 | 4994 ft | 261 kts | 269° |
| 2026-05-09 15:42 | 31.49728 | -68.07802 | 4995 ft | 260 kts | 269° |
| 2026-05-09 15:42 | 31.49721 | -68.09204 | 4996 ft | 260 kts | 269° |
| 2026-05-09 15:43 | 31.49709 | -68.11319 | 4991 ft | 260 kts | 269° |
| 2026-05-09 15:43 | 31.49697 | -68.13432 | 4991 ft | 259 kts | 269° |
| 2026-05-09 15:43 | 31.49635 | -68.15538 | 4986 ft | 258 kts | 263° |
| 2026-05-09 15:43 | 31.49188 | -68.17574 | 4983 ft | 259 kts | 250° |
| 2026-05-09 15:44 | 31.48466 | -68.19510 | 4995 ft | 260 kts | 246° |
| 2026-05-09 15:44 | 31.47689 | -68.21426 | 4994 ft | 261 kts | 244° |
| 2026-05-09 15:44 | 31.46740 | -68.23240 | 4990 ft | 262 kts | 235° |
| 2026-05-09 15:44 | 31.45479 | -68.24794 | 4982 ft | 266 kts | 219° |
| 2026-05-09 15:45 | 31.43812 | -68.25745 | 4983 ft | 271 kts | 196° |
| 2026-05-09 15:45 | 31.41924 | -68.25892 | 4980 ft | 275 kts | 177° |
| 2026-05-09 15:45 | 31.40031 | -68.25483 | 4984 ft | 278 kts | 168° |
| 2026-05-09 15:45 | 31.38164 | -68.24879 | 4984 ft | 278 kts | 167° |
| 2026-05-09 15:46 | 31.36302 | -68.24250 | 4982 ft | 278 kts | 167° |
| 2026-05-09 15:46 | 31.34444 | -68.23613 | 4982 ft | 278 kts | 167° |
| 2026-05-09 15:46 | 31.32588 | -68.22969 | 4983 ft | 278 kts | 166° |
| 2026-05-09 15:46 | 31.30730 | -68.22327 | 4979 ft | 278 kts | 166° |
| 2026-05-09 15:47 | 31.28873 | -68.21687 | 4978 ft | 278 kts | 166° |
| 2026-05-09 15:47 | 31.27020 | -68.21045 | 4979 ft | 278 kts | 166° |
| 2026-05-09 15:47 | 31.25172 | -68.20405 | 4980 ft | 277 kts | 167° |
| 2026-05-09 15:47 | 31.23320 | -68.19762 | 4985 ft | 277 kts | 166° |
| 2026-05-09 15:48 | 31.21482 | -68.19130 | 4983 ft | 275 kts | 166° |
| 2026-05-09 15:48 | 31.19646 | -68.18518 | 4979 ft | 274 kts | 167° |
| 2026-05-09 15:48 | 31.17804 | -68.17968 | 4978 ft | 273 kts | 169° |
| 2026-05-09 15:48 | 31.15979 | -68.17466 | 4975 ft | 273 kts | 170° |
| 2026-05-09 15:49 | 31.14128 | -68.16977 | 4982 ft | 273 kts | 171° |
| 2026-05-09 15:49 | 31.12274 | -68.16504 | 4981 ft | 273 kts | 171° |
| 2026-05-09 15:49 | 31.10415 | -68.16036 | 4975 ft | 273 kts | 170° |
| 2026-05-09 15:49 | 31.08551 | -68.15576 | 4980 ft | 274 kts | 171° |
| 2026-05-09 15:50 | 31.06683 | -68.15136 | 4977 ft | 274 kts | 172° |
| 2026-05-09 15:50 | 31.04815 | -68.14698 | 4976 ft | 274 kts | 172° |
| 2026-05-09 15:50 | 31.02943 | -68.14248 | 4977 ft | 274 kts | 171° |
| 2026-05-09 15:50 | 31.01074 | -68.13806 | 4975 ft | 274 kts | 171° |
| 2026-05-09 15:51 | 30.99203 | -68.13373 | 4974 ft | 274 kts | 172° |
| 2026-05-09 15:51 | 30.97335 | -68.12944 | 4974 ft | 273 kts | 171° |
| 2026-05-09 15:51 | 30.95469 | -68.12513 | 4982 ft | 273 kts | 172° |
| 2026-05-09 15:51 | 30.93611 | -68.12084 | 4979 ft | 272 kts | 171° |
| 2026-05-09 15:52 | 30.89902 | -68.11230 | 4972 ft | 271 kts | 171° |
| 2026-05-09 15:52 | 30.88046 | -68.10815 | 4973 ft | 271 kts | 172° |
| 2026-05-09 15:52 | 30.86194 | -68.10396 | 4974 ft | 272 kts | 171° |
| 2026-05-09 15:53 | 30.84339 | -68.09969 | 4979 ft | 272 kts | 172° |
| 2026-05-09 15:53 | 30.82485 | -68.09531 | 4975 ft | 272 kts | 171° |
| 2026-05-09 15:53 | 30.80631 | -68.09097 | 4977 ft | 272 kts | 171° |
| 2026-05-09 15:53 | 30.78777 | -68.08667 | 4983 ft | 272 kts | 171° |
| 2026-05-09 15:54 | 30.76936 | -68.08245 | 4978 ft | 273 kts | 171° |
| 2026-05-09 15:54 | 30.75066 | -68.07812 | 4979 ft | 274 kts | 172° |
| 2026-05-09 15:54 | 30.73197 | -68.07372 | 4976 ft | 273 kts | 171° |
| 2026-05-09 15:54 | 30.71333 | -68.06936 | 4984 ft | 273 kts | 171° |
| 2026-05-09 15:55 | 30.69464 | -68.06508 | 4974 ft | 274 kts | 171° |
| 2026-05-09 15:55 | 30.67580 | -68.06088 | 4972 ft | 275 kts | 172° |
| 2026-05-09 15:55 | 30.65704 | -68.05666 | 4970 ft | 274 kts | 172° |
| 2026-05-09 15:55 | 30.63829 | -68.05240 | 4978 ft | 274 kts | 172° |
| 2026-05-09 15:56 | 30.61964 | -68.04810 | 4973 ft | 273 kts | 171° |
| 2026-05-09 15:56 | 30.60099 | -68.04388 | 4973 ft | 273 kts | 171° |
| 2026-05-09 15:56 | 30.58255 | -68.03980 | 4975 ft | 272 kts | 172° |
| 2026-05-09 15:56 | 30.56395 | -68.03566 | 4965 ft | 272 kts | 171° |
| 2026-05-09 15:57 | 30.54542 | -68.03143 | 4976 ft | 271 kts | 172° |
| 2026-05-09 15:57 | 30.52692 | -68.02720 | 4977 ft | 271 kts | 172° |
| 2026-05-09 15:57 | 30.50845 | -68.02304 | 4968 ft | 271 kts | 172° |
| 2026-05-09 15:57 | 30.48994 | -68.01888 | 4967 ft | 271 kts | 171° |
| 2026-05-09 15:58 | 30.47138 | -68.01477 | 4969 ft | 271 kts | 172° |